Time;durP1;ratioP1;P1;durP2;ratioP2;P2;SDS_P1;SDS_P2;PMS_P1;PMS_P2;Temp;Humidity;BMP_temperature;BMP_pressure;BME280_temperature;BME280_humidity;BME280_pressure;Samples;Min_cycle;Max_cycle;Signal;HPM_P1;HPM_P2
2023/11/15 00:02:23;;;;;;;7.82;1.77;;;9.60;99.90;;;;;;4988306;28;20516;-62
2023/11/15 00:04:49;;;;;;;7.63;1.73;;;9.70;99.90;;;;;;4988171;28;20097;-62
2023/11/15 00:07:14;;;;;;;13.80;1.67;;;9.70;99.90;;;;;;4993744;28;20081;-62
2023/11/15 00:09:40;;;;;;;9.65;1.70;;;9.70;99.90;;;;;;4988053;28;20073;-62
2023/11/15 00:12:06;;;;;;;11.65;1.70;;;9.60;99.90;;;;;;4988097;28;20037;-62
2023/11/15 00:14:32;;;;;;;9.13;1.70;;;9.60;99.90;;;;;;4970485;28;20157;-62
2023/11/15 00:16:57;;;;;;;7.55;1.35;;;9.60;99.90;;;;;;4987993;28;20158;-63
2023/11/15 00:19:23;;;;;;;6.55;1.70;;;9.60;99.90;;;;;;4987914;28;20045;-62
2023/11/15 00:21:49;;;;;;;8.93;1.65;;;9.70;99.90;;;;;;4987141;28;20038;-62
2023/11/15 00:24:15;;;;;;;16.25;1.55;;;9.60;99.90;;;;;;4988093;28;20042;-62
2023/11/15 00:26:41;;;;;;;7.70;1.88;;;9.60;99.90;;;;;;4987855;28;20083;-62
2023/11/15 00:29:07;;;;;;;10.65;1.98;;;9.50;99.90;;;;;;4985031;28;20050;-62
2023/11/15 00:31:33;;;;;;;7.32;1.60;;;9.60;99.90;;;;;;4987423;28;20153;-62
2023/11/15 00:33:58;;;;;;;10.05;1.73;;;9.60;99.90;;;;;;4986445;28;20131;-62
2023/11/15 00:36:24;;;;;;;6.78;1.50;;;9.60;99.90;;;;;;4979576;28;20041;-62
2023/11/15 00:38:49;;;;;;;7.72;1.20;;;9.60;99.90;;;;;;4987802;28;20034;-62
2023/11/15 00:41:18;;;;;;;11.75;1.30;;;9.60;99.90;;;;;;4987335;28;20089;-62
2023/11/15 00:43:44;;;;;;;11.73;1.67;;;9.60;99.90;;;;;;4986195;28;20549;-62
2023/11/15 00:46:13;;;;;;;5.53;1.15;;;9.60;99.90;;;;;;4987055;28;20090;-62
2023/11/15 00:48:42;;;;;;;7.53;1.20;;;9.50;99.90;;;;;;4987912;28;20049;-62
2023/11/15 00:51:09;;;;;;;9.02;1.35;;;9.50;99.90;;;;;;4987531;28;20122;-62
2023/11/15 00:53:34;;;;;;;9.68;1.42;;;9.50;99.90;;;;;;4987281;28;20125;-62
2023/11/15 00:56:00;;;;;;;9.38;1.77;;;9.50;99.90;;;;;;4987858;28;20125;-62
2023/11/15 00:58:38;;;;;;;9.63;1.60;;;9.50;99.90;;;;;;4987588;28;20113;-62
2023/11/15 01:01:08;;;;;;;11.70;1.88;;;9.50;99.90;;;;;;4987057;28;20045;-62
2023/11/15 01:03:34;;;;;;;4.05;1.17;;;9.50;99.90;;;;;;4972538;28;20038;-63
2023/11/15 01:06:01;;;;;;;6.30;1.35;;;9.50;99.90;;;;;;4987176;28;20076;-62
2023/11/15 01:08:27;;;;;;;5.97;1.30;;;9.50;99.90;;;;;;4994714;28;20134;-62
2023/11/15 01:10:54;;;;;;;10.07;1.55;;;9.50;99.90;;;;;;4983421;28;20054;-62
2023/11/15 01:13:21;;;;;;;7.85;1.40;;;9.40;99.90;;;;;;4986952;28;20057;-62
2023/11/15 01:15:46;;;;;;;6.72;1.30;;;9.40;99.90;;;;;;4987423;28;20045;-62
2023/11/15 01:18:13;;;;;;;8.25;1.48;;;9.50;99.90;;;;;;4987445;28;20498;-62
2023/11/15 01:20:39;;;;;;;12.27;1.35;;;9.40;99.90;;;;;;4970179;28;20035;-62
2023/11/15 01:23:06;;;;;;;8.45;1.10;;;9.40;99.90;;;;;;4985745;28;20038;-62
2023/11/15 01:25:32;;;;;;;7.18;1.20;;;9.40;99.90;;;;;;4993235;28;20035;-62
2023/11/15 01:27:58;;;;;;;11.90;1.63;;;9.40;99.90;;;;;;4989370;28;20058;-62
2023/11/15 01:30:24;;;;;;;10.00;1.40;;;9.30;99.90;;;;;;4984863;28;20089;-62
2023/11/15 01:32:53;;;;;;;5.70;1.17;;;9.40;99.90;;;;;;4987267;28;20035;-62
2023/11/15 01:35:18;;;;;;;6.93;1.50;;;9.30;99.90;;;;;;4985402;28;20050;-63
2023/11/15 01:37:50;;;;;;;7.38;2.13;;;9.40;99.90;;;;;;4991158;28;20493;-62
2023/11/15 01:40:16;;;;;;;5.80;1.30;;;9.40;99.90;;;;;;4986842;28;20069;-62
2023/11/15 01:42:41;;;;;;;9.38;1.15;;;9.30;99.90;;;;;;4987500;28;20061;-62
2023/11/15 01:45:07;;;;;;;9.27;2.22;;;9.40;99.90;;;;;;4992777;28;20546;-62
2023/11/15 01:47:34;;;;;;;6.80;1.50;;;9.30;99.90;;;;;;4989191;28;20037;-62
2023/11/15 01:50:00;;;;;;;7.70;1.30;;;9.30;99.90;;;;;;4989348;28;20046;-62
2023/11/15 01:52:27;;;;;;;12.45;2.00;;;9.30;99.90;;;;;;4990339;28;20038;-62
2023/11/15 01:54:58;;;;;;;10.57;1.60;;;9.30;99.90;;;;;;4990393;28;20049;-62
2023/11/15 01:57:24;;;;;;;10.27;1.30;;;9.30;99.90;;;;;;4971399;28;20034;-62
2023/11/15 01:59:50;;;;;;;7.28;1.65;;;9.30;99.90;;;;;;4990544;28;20038;-62
2023/11/15 02:02:16;;;;;;;8.05;1.30;;;9.30;99.90;;;;;;4990174;28;20133;-62
2023/11/15 02:04:41;;;;;;;9.07;1.60;;;9.30;99.90;;;;;;4988764;28;20470;-62
2023/11/15 02:07:08;;;;;;;6.70;1.52;;;9.20;99.90;;;;;;4992320;28;20038;-62
2023/11/15 02:09:37;;;;;;;7.05;1.50;;;9.20;99.90;;;;;;4985000;28;20138;-62
2023/11/15 02:12:03;;;;;;;10.07;1.55;;;9.20;99.90;;;;;;4972968;28;20046;-62
2023/11/15 02:14:30;;;;;;;9.77;1.88;;;9.10;99.90;;;;;;4992560;28;20482;-62
2023/11/15 02:16:56;;;;;;;8.48;1.70;;;9.10;99.90;;;;;;4990675;28;20403;-62
2023/11/15 02:19:21;;;;;;;10.45;1.67;;;9.10;99.90;;;;;;4990195;28;20038;-62
2023/11/15 02:21:47;;;;;;;7.80;1.30;;;9.10;99.90;;;;;;4989538;28;20052;-62
2023/11/15 02:24:13;;;;;;;10.32;1.83;;;9.10;99.90;;;;;;4972800;28;20046;-62
2023/11/15 02:26:46;;;;;;;6.40;1.80;;;9.10;99.90;;;;;;4990115;28;20068;-62
2023/11/15 02:29:12;;;;;;;9.07;1.55;;;9.20;99.90;;;;;;4989600;28;20113;-62
2023/11/15 02:31:38;;;;;;;9.55;1.70;;;9.20;99.90;;;;;;4978359;28;20034;-62
2023/11/15 02:34:04;;;;;;;9.77;1.58;;;9.20;99.90;;;;;;4989884;28;20042;-62
2023/11/15 02:36:29;;;;;;;7.40;1.55;;;9.20;99.90;;;;;;4994847;28;20066;-62
2023/11/15 02:38:55;;;;;;;6.90;1.40;;;9.20;99.90;;;;;;4995965;28;20033;-62
2023/11/15 02:41:21;;;;;;;5.60;1.33;;;9.10;99.90;;;;;;4990312;28;20058;-62
2023/11/15 02:43:46;;;;;;;10.00;1.50;;;9.10;99.90;;;;;;4992567;28;20038;-62
2023/11/15 02:46:18;;;;;;;6.40;1.30;;;9.10;99.90;;;;;;4981659;28;20078;-62
2023/11/15 02:48:43;;;;;;;6.30;1.40;;;9.10;99.90;;;;;;4989320;28;20047;-62
2023/11/15 02:51:10;;;;;;;6.00;1.33;;;9.00;99.90;;;;;;4996436;28;20041;-62
2023/11/15 02:53:36;;;;;;;9.30;1.20;;;9.00;99.90;;;;;;4990688;28;20100;-62
2023/11/15 02:56:03;;;;;;;8.32;1.60;;;8.90;99.90;;;;;;4991715;28;20502;-62
2023/11/15 02:58:28;;;;;;;8.23;1.55;;;8.90;99.90;;;;;;4989702;28;20057;-62
2023/11/15 03:00:54;;;;;;;4.15;1.13;;;8.80;99.90;;;;;;4989569;28;20505;-62
2023/11/15 03:03:19;;;;;;;9.00;1.50;;;8.80;99.90;;;;;;4988740;28;20113;-62
2023/11/15 03:05:46;;;;;;;10.32;1.50;;;8.70;99.90;;;;;;4988712;28;20041;-62
2023/11/15 03:08:11;;;;;;;7.95;1.35;;;8.70;99.90;;;;;;4989277;28;20042;-62
2023/11/15 03:10:37;;;;;;;9.38;1.40;;;8.70;99.90;;;;;;4971492;28;20448;-62
2023/11/15 03:13:03;;;;;;;14.90;1.73;;;8.70;99.90;;;;;;4971541;28;20077;-62
2023/11/15 03:15:29;;;;;;;4.38;1.27;;;8.70;99.90;;;;;;4971690;28;20035;-62
2023/11/15 03:17:55;;;;;;;4.50;1.10;;;8.60;99.90;;;;;;4986772;28;20046;-62
2023/11/15 03:20:20;;;;;;;7.63;1.60;;;8.70;99.90;;;;;;4996871;28;20042;-62
2023/11/15 03:22:47;;;;;;;8.52;1.60;;;8.70;99.90;;;;;;4989240;28;20034;-62
2023/11/15 03:25:13;;;;;;;7.07;1.85;;;8.60;99.90;;;;;;4970972;28;20057;-62
2023/11/15 03:27:38;;;;;;;9.23;1.73;;;8.60;99.90;;;;;;4988868;28;20038;-62
2023/11/15 03:30:05;;;;;;;5.03;1.60;;;8.60;99.90;;;;;;4996312;28;20034;-62
2023/11/15 03:32:30;;;;;;;7.53;1.90;;;8.60;99.90;;;;;;4989042;28;20034;-62
2023/11/15 03:34:56;;;;;;;7.85;1.85;;;8.60;99.90;;;;;;4987936;28;20041;-62
2023/11/15 03:37:23;;;;;;;9.18;2.03;;;8.60;99.90;;;;;;4988730;28;20097;-62
2023/11/15 03:39:48;;;;;;;9.25;1.70;;;8.60;99.90;;;;;;4990608;28;20050;-62
2023/11/15 03:42:14;;;;;;;6.63;1.50;;;8.60;99.90;;;;;;4991609;28;20057;-62
2023/11/15 03:44:39;;;;;;;6.72;1.65;;;8.70;99.90;;;;;;4988344;28;20486;-62
2023/11/15 03:47:05;;;;;;;4.35;1.70;;;8.60;99.90;;;;;;4992141;28;20045;-62
2023/11/15 03:49:31;;;;;;;7.75;1.63;;;8.60;99.90;;;;;;4988845;28;20042;-62
2023/11/15 03:51:57;;;;;;;8.63;2.00;;;8.70;99.90;;;;;;4988518;28;20622;-62
2023/11/15 03:54:23;;;;;;;6.82;1.73;;;8.70;99.90;;;;;;4988714;28;20043;-62
2023/11/15 03:56:49;;;;;;;9.57;1.75;;;8.70;99.90;;;;;;4988624;28;20406;-62
2023/11/15 03:59:14;;;;;;;8.27;1.83;;;8.70;99.90;;;;;;4988753;28;20460;-62
2023/11/15 04:01:40;;;;;;;8.38;1.98;;;8.70;99.90;;;;;;4982671;28;20040;-62
2023/11/15 04:04:05;;;;;;;8.40;2.70;;;8.70;99.90;;;;;;4988605;28;20419;-62
2023/11/15 04:06:31;;;;;;;7.93;1.80;;;8.70;99.90;;;;;;4965467;28;20046;-62
2023/11/15 04:08:58;;;;;;;10.30;2.28;;;8.80;99.90;;;;;;4987137;28;20101;-62
2023/11/15 04:11:26;;;;;;;6.22;1.80;;;8.80;99.90;;;;;;4984745;28;20102;-62
2023/11/15 04:13:52;;;;;;;6.57;1.80;;;8.80;99.90;;;;;;4988913;28;20406;-62
2023/11/15 04:16:18;;;;;;;8.68;2.00;;;8.80;99.90;;;;;;4982117;28;20076;-62
2023/11/15 04:18:44;;;;;;;9.88;2.13;;;8.80;99.90;;;;;;4988551;28;20070;-62
2023/11/15 04:21:09;;;;;;;8.50;2.30;;;8.80;99.90;;;;;;4995181;28;20042;-62
2023/11/15 04:23:36;;;;;;;9.18;2.22;;;8.70;99.90;;;;;;4988755;28;20042;-62
2023/11/15 04:26:02;;;;;;;9.00;1.90;;;8.70;99.90;;;;;;4981958;28;20113;-62
2023/11/15 04:28:28;;;;;;;11.13;2.00;;;8.70;99.90;;;;;;4988499;28;20030;-62
2023/11/15 04:30:54;;;;;;;8.90;1.92;;;8.70;99.90;;;;;;4970745;28;20038;-62
2023/11/15 04:33:20;;;;;;;9.02;2.20;;;8.70;99.90;;;;;;4980244;28;20027;-62
2023/11/15 04:35:45;;;;;;;9.85;1.88;;;8.70;99.90;;;;;;4970536;28;20485;-62
2023/11/15 04:38:11;;;;;;;7.95;1.92;;;8.70;99.90;;;;;;4989009;28;20026;-62
2023/11/15 04:40:37;;;;;;;10.68;2.20;;;8.70;99.90;;;;;;4967450;28;20104;-62
2023/11/15 04:43:04;;;;;;;5.30;2.15;;;8.70;99.90;;;;;;4987532;28;20825;-62
2023/11/15 04:45:30;;;;;;;8.93;2.00;;;8.70;99.90;;;;;;4988022;28;20113;-62
2023/11/15 04:47:56;;;;;;;8.05;2.75;;;8.70;99.90;;;;;;4993326;28;20031;-62
2023/11/15 04:50:22;;;;;;;13.35;2.85;;;8.80;99.90;;;;;;4987897;28;20065;-62
2023/11/15 04:52:48;;;;;;;10.68;2.00;;;8.80;99.90;;;;;;4975146;28;20050;-62
2023/11/15 04:55:14;;;;;;;10.68;2.20;;;8.80;99.90;;;;;;4987476;28;20370;-62
2023/11/15 04:57:40;;;;;;;9.38;2.65;;;8.80;99.90;;;;;;4988133;28;20038;-62
2023/11/15 05:00:10;;;;;;;10.18;2.75;;;8.80;99.90;;;;;;4987967;28;20085;-62
2023/11/15 05:02:36;;;;;;;6.65;2.35;;;8.80;99.90;;;;;;4970569;28;20046;-62
2023/11/15 05:05:03;;;;;;;8.60;2.50;;;8.80;99.90;;;;;;4989369;28;20033;-61
2023/11/15 05:07:32;;;;;;;10.07;2.90;;;8.90;99.90;;;;;;4970577;28;20069;-62
2023/11/15 05:09:57;;;;;;;9.35;3.08;;;8.90;99.90;;;;;;4987476;28;20042;-62
2023/11/15 05:12:23;;;;;;;14.48;3.83;;;8.90;99.90;;;;;;4987901;28;20092;-65
2023/11/15 05:14:49;;;;;;;17.67;3.90;;;8.90;99.90;;;;;;4968216;28;20121;-61
2023/11/15 05:17:15;;;;;;;13.45;3.88;;;8.90;99.90;;;;;;4968801;28;20042;-61
2023/11/15 05:19:40;;;;;;;11.73;3.90;;;8.90;99.90;;;;;;4986874;28;20038;-61
2023/11/15 05:22:06;;;;;;;11.07;3.95;;;8.90;99.90;;;;;;4987723;28;20046;-62
2023/11/15 05:24:32;;;;;;;12.15;3.88;;;8.90;99.90;;;;;;4987228;28;20053;-61
2023/11/15 05:26:58;;;;;;;14.43;4.15;;;8.90;99.90;;;;;;4987796;28;20030;-61
2023/11/15 05:29:24;;;;;;;14.98;4.10;;;8.90;99.90;;;;;;4984786;28;20042;-63
2023/11/15 05:31:50;;;;;;;17.85;4.47;;;9.00;99.90;;;;;;4987688;28;20599;-62
2023/11/15 05:34:16;;;;;;;19.35;4.57;;;9.00;99.90;;;;;;4986037;28;20054;-62
2023/11/15 05:36:42;;;;;;;16.48;4.68;;;9.00;99.90;;;;;;4965300;28;20046;-62
2023/11/15 05:39:09;;;;;;;16.67;5.65;;;9.00;99.90;;;;;;4987360;28;20049;-61
2023/11/15 05:41:35;;;;;;;13.25;4.60;;;9.00;99.90;;;;;;4969705;28;20129;-63
2023/11/15 05:44:00;;;;;;;14.18;4.50;;;9.00;99.90;;;;;;4987307;28;20062;-64
2023/11/15 05:46:26;;;;;;;15.82;5.80;;;9.00;99.90;;;;;;4986904;28;20073;-62
2023/11/15 05:48:52;;;;;;;16.63;5.70;;;9.10;99.90;;;;;;4987695;28;20055;-62
2023/11/15 05:51:18;;;;;;;15.15;5.60;;;9.00;99.90;;;;;;4987484;28;20038;-61
2023/11/15 05:53:44;;;;;;;16.17;5.65;;;9.50;99.90;;;;;;4986578;28;20080;-62
2023/11/15 05:56:10;;;;;;;16.42;5.15;;;9.10;99.90;;;;;;4985618;28;20038;-61
2023/11/15 05:58:36;;;;;;;18.05;5.43;;;9.00;99.90;;;;;;4987335;28;20037;-61
2023/11/15 06:01:03;;;;;;;16.08;5.18;;;9.10;99.90;;;;;;4987109;28;20092;-61
2023/11/15 06:03:29;;;;;;;14.73;5.53;;;9.10;99.90;;;;;;4990529;28;20043;-61
2023/11/15 06:05:54;;;;;;;17.88;5.65;;;9.10;99.90;;;;;;4969552;28;20081;-62
2023/11/15 06:08:20;;;;;;;15.52;4.80;;;9.10;99.90;;;;;;4969876;28;20053;-62
2023/11/15 06:10:47;;;;;;;17.80;5.70;;;9.10;99.90;;;;;;4986632;28;20105;-63
2023/11/15 06:13:15;;;;;;;16.13;5.28;;;9.10;99.90;;;;;;4985549;28;20121;-61
2023/11/15 06:15:44;;;;;;;16.80;5.25;;;9.10;99.90;;;;;;4969911;28;20149;-63
2023/11/15 06:18:12;;;;;;;19.65;5.18;;;9.10;99.90;;;;;;4983992;28;20052;-62
2023/11/15 06:20:38;;;;;;;18.17;5.45;;;9.10;99.90;;;;;;4987120;28;20042;-61
2023/11/15 06:23:04;;;;;;;17.02;5.70;;;9.10;99.90;;;;;;4985632;28;20052;-62
2023/11/15 06:25:32;;;;;;;17.25;5.18;;;9.10;99.90;;;;;;4975749;28;20379;-61
2023/11/15 06:27:59;;;;;;;15.50;5.53;;;9.10;99.90;;;;;;4987515;28;20175;-64
2023/11/15 06:30:25;;;;;;;12.82;5.03;;;9.10;99.90;;;;;;4980306;28;20074;-61
2023/11/15 06:32:50;;;;;;;18.20;5.30;;;9.20;99.90;;;;;;4991896;28;20500;-62
2023/11/15 06:35:19;;;;;;;17.27;5.53;;;9.20;99.90;;;;;;4995806;28;20042;-62
2023/11/15 06:37:46;;;;;;;17.75;5.53;;;9.10;99.90;;;;;;4965986;28;20038;-63
2023/11/15 06:40:13;;;;;;;17.38;5.90;;;9.10;99.90;;;;;;4989782;28;20417;-62
2023/11/15 06:42:40;;;;;;;16.80;5.80;;;9.20;99.90;;;;;;4990724;28;20482;-62
2023/11/15 06:45:06;;;;;;;18.48;5.93;;;9.10;99.90;;;;;;4972161;28;20094;-63
2023/11/15 06:47:31;;;;;;;15.27;5.70;;;9.10;99.90;;;;;;4990064;28;20042;-62
2023/11/15 06:49:58;;;;;;;20.40;6.40;;;9.20;99.90;;;;;;4972662;28;20053;-61
2023/11/15 06:52:25;;;;;;;18.25;6.32;;;9.20;99.90;;;;;;4990303;28;20149;-61
2023/11/15 06:54:52;;;;;;;24.42;6.63;;;9.10;99.90;;;;;;4965116;28;20045;-62
2023/11/15 06:57:19;;;;;;;17.25;6.50;;;9.20;99.90;;;;;;4972476;28;20084;-62
2023/11/15 06:59:45;;;;;;;20.85;7.13;;;9.10;99.90;;;;;;4993232;28;20485;-62
2023/11/15 07:02:11;;;;;;;24.35;8.93;;;9.10;99.90;;;;;;4989969;28;20046;-65
2023/11/15 07:04:37;;;;;;;23.35;9.25;;;9.10;99.90;;;;;;4968923;28;20411;-63
2023/11/15 07:07:03;;;;;;;27.67;10.32;;;9.10;99.90;;;;;;4989628;28;20195;-62
2023/11/15 07:09:28;;;;;;;29.67;10.90;;;9.10;99.90;;;;;;4971457;28;20558;-64
2023/11/15 07:11:54;;;;;;;31.90;12.18;;;9.10;99.90;;;;;;4986056;28;20398;-63
2023/11/15 07:14:20;;;;;;;34.53;12.20;;;9.20;99.90;;;;;;4986726;28;20035;-62
2023/11/15 07:16:55;;;;;;;32.72;11.85;;;9.20;99.90;;;;;;4966452;28;20038;-62
2023/11/15 07:19:24;;;;;;;31.63;11.20;;;9.20;99.90;;;;;;4989519;28;20046;-65
2023/11/15 07:21:53;;;;;;;29.92;11.60;;;9.30;99.90;;;;;;4989582;28;20434;-63
2023/11/15 07:24:20;;;;;;;32.53;10.90;;;9.20;99.90;;;;;;4989461;28;20093;-63
2023/11/15 07:26:47;;;;;;;29.05;10.82;;;9.20;99.90;;;;;;4994501;28;20045;-62
2023/11/15 07:29:18;;;;;;;27.02;10.65;;;9.30;99.90;;;;;;4989149;28;20050;-62
2023/11/15 07:31:52;;;;;;;27.77;10.38;;;9.30;99.90;;;;;;4971360;28;20045;-62
2023/11/15 07:34:24;;;;;;;27.38;10.27;;;9.30;99.90;;;;;;4991436;28;20517;-61
2023/11/15 07:36:55;;;;;;;25.40;10.00;;;9.40;99.90;;;;;;4983595;28;20042;-62
2023/11/15 07:39:24;;;;;;;20.35;9.55;;;9.40;99.90;;;;;;4988708;28;20038;-61
2023/11/15 07:41:52;;;;;;;21.85;9.57;;;9.40;99.90;;;;;;4987809;28;20137;-62
2023/11/15 07:44:19;;;;;;;22.50;8.73;;;9.40;99.90;;;;;;4971238;28;20054;-64
2023/11/15 07:46:51;;;;;;;19.90;8.60;;;9.40;99.90;;;;;;4991669;28;20061;-62
2023/11/15 07:49:23;;;;;;;21.42;8.68;;;9.40;99.90;;;;;;4989328;28;20042;-62
2023/11/15 07:51:50;;;;;;;19.60;8.05;;;9.40;99.90;;;;;;4970895;28;20057;-62
2023/11/15 07:54:16;;;;;;;19.00;7.85;;;9.40;99.90;;;;;;4971078;28;20244;-62
2023/11/15 07:56:42;;;;;;;24.52;8.05;;;9.50;99.90;;;;;;4970718;28;20030;-62
2023/11/15 07:59:08;;;;;;;22.45;7.53;;;9.50;99.90;;;;;;4991702;28;20327;-62
2023/11/15 08:01:33;;;;;;;19.92;7.85;;;9.50;99.90;;;;;;4970958;28;20038;-62
2023/11/15 08:04:01;;;;;;;22.60;8.20;;;9.50;99.90;;;;;;4986061;28;20161;-63
2023/11/15 08:06:27;;;;;;;19.30;7.28;;;9.50;99.90;;;;;;4970351;28;20100;-64
2023/11/15 08:08:54;;;;;;;18.42;7.80;;;9.50;99.90;;;;;;4988641;28;20133;-62
2023/11/15 08:11:24;;;;;;;22.70;8.07;;;9.50;99.90;;;;;;4988372;28;20109;-61
2023/11/15 08:13:50;;;;;;;19.25;7.47;;;9.50;99.90;;;;;;4988277;28;20092;-61
2023/11/15 08:16:17;;;;;;;17.23;6.90;;;9.60;99.90;;;;;;4987215;28;20042;-62
2023/11/15 08:18:42;;;;;;;18.33;6.60;;;9.60;99.90;;;;;;4988105;28;20097;-64
2023/11/15 08:21:12;;;;;;;16.83;5.75;;;9.50;99.90;;;;;;4990155;28;20106;-62
2023/11/15 08:23:38;;;;;;;12.35;5.68;;;9.60;99.90;;;;;;4970304;28;20049;-61
2023/11/15 08:26:04;;;;;;;12.93;5.35;;;9.60;99.90;;;;;;4987061;28;20042;-62
2023/11/15 08:28:33;;;;;;;13.32;5.50;;;9.60;99.90;;;;;;4986320;28;20054;-61
2023/11/15 08:30:59;;;;;;;11.85;4.68;;;9.60;99.90;;;;;;4987710;28;20039;-61
2023/11/15 08:33:26;;;;;;;13.60;4.40;;;9.60;99.90;;;;;;4987395;28;20038;-61
2023/11/15 08:35:53;;;;;;;11.45;4.47;;;9.60;99.90;;;;;;4986155;28;20034;-61
2023/11/15 08:38:25;;;;;;;8.52;3.95;;;9.60;99.90;;;;;;4987493;28;20391;-61
2023/11/15 08:40:51;;;;;;;11.38;3.70;;;9.60;99.90;;;;;;4987715;28;20049;-61
2023/11/15 08:43:19;;;;;;;7.43;3.58;;;9.50;99.90;;;;;;4969510;28;20046;-62
2023/11/15 08:45:46;;;;;;;11.13;4.00;;;9.50;99.90;;;;;;4985557;28;20054;-64
2023/11/15 08:48:17;;;;;;;9.00;3.15;;;9.50;99.90;;;;;;4986197;28;20133;-62
2023/11/15 08:50:46;;;;;;;11.10;3.25;;;9.50;99.90;;;;;;4970160;28;20046;-61
2023/11/15 08:53:12;;;;;;;8.68;3.55;;;9.40;99.90;;;;;;4987262;28;20069;-63
2023/11/15 08:55:38;;;;;;;8.00;3.08;;;9.40;99.90;;;;;;4987101;28;20046;-61
2023/11/15 08:58:05;;;;;;;5.18;2.80;;;9.40;99.90;;;;;;4973079;28;20044;-65
2023/11/15 09:00:31;;;;;;;7.53;2.65;;;9.40;99.90;;;;;;4993232;28;20532;-62
2023/11/15 09:02:57;;;;;;;7.40;2.78;;;9.40;99.90;;;;;;4967605;28;20038;-61
2023/11/15 09:05:24;;;;;;;6.57;2.25;;;9.40;99.90;;;;;;4986939;28;20050;-61
2023/11/15 09:07:50;;;;;;;4.22;2.10;;;9.40;99.90;;;;;;4986907;28;20367;-62
2023/11/15 09:10:16;;;;;;;4.55;2.42;;;9.40;99.90;;;;;;4986157;28;20108;-62
2023/11/15 09:12:44;;;;;;;7.03;2.63;;;9.40;99.90;;;;;;4989872;28;20069;-63
2023/11/15 09:15:13;;;;;;;6.32;2.30;;;9.40;99.90;;;;;;4988543;28;20074;-63
2023/11/15 09:17:46;;;;;;;6.72;2.28;;;9.40;99.90;;;;;;4984749;28;20466;-62
2023/11/15 09:20:21;;;;;;;4.25;2.10;;;9.40;99.90;;;;;;4987052;28;20425;-61
2023/11/15 09:22:49;;;;;;;3.90;1.85;;;9.40;99.90;;;;;;4989597;28;20074;-63
2023/11/15 09:25:24;;;;;;;6.03;1.90;;;9.40;99.90;;;;;;4987912;28;20045;-64
2023/11/15 09:27:52;;;;;;;6.05;2.10;;;9.50;99.90;;;;;;4969566;28;20049;-62
2023/11/15 09:30:18;;;;;;;7.13;1.83;;;9.50;99.90;;;;;;4969156;28;20053;-62
2023/11/15 09:32:47;;;;;;;3.83;1.88;;;9.50;99.90;;;;;;4986399;28;20049;-62
2023/11/15 09:35:14;;;;;;;3.67;1.65;;;9.60;99.90;;;;;;4969124;28;20042;-61
2023/11/15 09:37:42;;;;;;;4.70;1.50;;;9.60;99.90;;;;;;4986668;28;20074;-62
2023/11/15 09:40:12;;;;;;;5.95;1.75;;;9.60;99.90;;;;;;4968956;28;20050;-61
2023/11/15 09:42:44;;;;;;;2.80;1.40;;;9.60;99.90;;;;;;4986960;28;20038;-62
2023/11/15 09:45:16;;;;;;;3.97;1.55;;;9.60;99.90;;;;;;4986035;28;20117;-61
2023/11/15 09:47:44;;;;;;;;;;;9.60;99.90;;;;;;4969889;28;20134;-63
2023/11/15 09:50:13;;;;;;;2.88;1.30;;;9.60;99.90;;;;;;4969117;28;19972;-62
2023/11/15 09:52:40;;;;;;;3.38;1.42;;;9.60;99.90;;;;;;4986471;28;20045;-61
2023/11/15 09:55:07;;;;;;;5.65;1.52;;;9.60;99.90;;;;;;4987258;28;20042;-63
2023/11/15 09:57:36;;;;;;;4.93;1.50;;;9.60;99.90;;;;;;4986863;28;20644;-61
2023/11/15 10:00:04;;;;;;;3.88;1.60;;;9.70;99.90;;;;;;4983834;28;20513;-64
2023/11/15 10:02:32;;;;;;;4.18;1.50;;;9.60;99.90;;;;;;4986517;28;20061;-62
2023/11/15 10:05:14;;;;;;;3.58;1.77;;;9.70;99.90;;;;;;4987913;28;20050;-63
2023/11/15 10:07:42;;;;;;;3.15;1.60;;;9.70;99.90;;;;;;4985049;28;20394;-62
2023/11/15 10:10:18;;;;;;;2.45;1.58;;;9.70;99.90;;;;;;4989576;28;20057;-61
2023/11/15 10:12:45;;;;;;;5.82;1.70;;;9.70;99.90;;;;;;4986695;28;20122;-62
2023/11/15 10:15:11;;;;;;;3.05;1.63;;;9.70;99.90;;;;;;4978167;28;20045;-62
2023/11/15 10:17:42;;;;;;;2.90;1.55;;;9.70;99.90;;;;;;4989858;28;20026;-61
2023/11/15 10:20:25;;;;;;;2.95;1.80;;;9.80;99.90;;;;;;4990392;28;20047;-63
2023/11/15 10:22:55;;;;;;;4.13;1.80;;;9.80;99.90;;;;;;4989795;28;20050;-62
2023/11/15 10:25:20;;;;;;;3.70;1.73;;;9.80;99.90;;;;;;4989514;28;20510;-62
2023/11/15 10:27:47;;;;;;;4.85;1.80;;;9.90;99.90;;;;;;4990015;28;20145;-63
2023/11/15 10:30:16;;;;;;;3.33;1.33;;;9.90;99.90;;;;;;4988240;28;20544;-63
2023/11/15 10:32:44;;;;;;;4.40;1.70;;;10.00;99.90;;;;;;4972402;28;20497;-61
2023/11/15 10:35:10;;;;;;;4.85;1.83;;;10.00;99.90;;;;;;4987728;28;20046;-62
2023/11/15 10:37:51;;;;;;;5.00;2.13;;;10.00;99.90;;;;;;4988554;28;20420;-64
2023/11/15 10:40:21;;;;;;;7.95;2.05;;;10.00;99.90;;;;;;4989153;28;20090;-61
2023/11/15 10:42:51;;;;;;;12.65;2.40;;;10.10;99.90;;;;;;4995580;28;20382;-63
2023/11/15 10:45:17;;;;;;;10.27;2.97;;;10.10;99.90;;;;;;4989167;28;20556;-62
2023/11/15 10:47:55;;;;;;;11.38;3.45;;;10.10;99.90;;;;;;4955989;28;20477;-61
2023/11/15 10:50:22;;;;;;;11.02;2.60;;;10.20;99.90;;;;;;4988346;28;20236;-63
2023/11/15 10:52:51;;;;;;;17.88;3.78;;;10.30;99.90;;;;;;4985456;28;20042;-61
2023/11/15 10:55:18;;;;;;;13.18;3.30;;;10.30;99.90;;;;;;4978320;28;20418;-62
2023/11/15 10:57:46;;;;;;;15.10;3.50;;;10.40;99.90;;;;;;4973557;28;20470;-61
2023/11/15 11:00:21;;;;;;;11.43;2.30;;;10.40;99.90;;;;;;4979325;28;20793;-61
2023/11/15 11:02:51;;;;;;;8.30;1.77;;;10.40;99.90;;;;;;4989206;28;20042;-61
2023/11/15 11:06:02;;;;;;;11.38;2.35;;;10.40;99.90;;;;;;4971665;28;20061;-61
2023/11/15 11:08:45;;;;;;;14.38;2.22;;;10.30;99.90;;;;;;4987584;28;20042;-62
2023/11/15 11:11:11;;;;;;;9.52;1.80;;;10.20;99.90;;;;;;4967285;28;20054;-62
2023/11/15 11:13:40;;;;;;;9.20;2.08;;;10.20;99.90;;;;;;4994428;28;20045;-62
2023/11/15 11:16:24;;;;;;;10.68;2.53;;;10.10;99.90;;;;;;4973143;28;20099;-62
2023/11/15 11:19:13;;;;;;;7.55;2.08;;;10.10;99.90;;;;;;4989078;28;20387;-62
2023/11/15 11:22:03;;;;;;;8.75;2.10;;;10.10;99.90;;;;;;4965506;28;20046;-63
2023/11/15 11:24:36;;;;;;;9.35;2.15;;;10.00;99.90;;;;;;4985229;28;20081;-61
2023/11/15 11:27:16;;;;;;;9.35;2.40;;;10.00;99.90;;;;;;4971215;28;20038;-62
2023/11/15 11:29:50;;;;;;;12.27;2.83;;;10.10;99.90;;;;;;4988473;28;20038;-63
2023/11/15 11:32:17;;;;;;;15.57;2.85;;;10.20;99.90;;;;;;4988889;28;20078;-63
2023/11/15 11:35:13;;;;;;;14.65;2.63;;;10.20;99.90;;;;;;4988088;28;20532;-61
2023/11/15 11:37:53;;;;;;;11.68;2.80;;;10.40;99.90;;;;;;4989564;28;20038;-62
2023/11/15 11:40:40;;;;;;;14.63;2.70;;;10.40;99.90;;;;;;4991453;28;20184;-61
2023/11/15 11:43:15;;;;;;;13.10;2.72;;;10.50;99.90;;;;;;4987914;28;20535;-62
2023/11/15 11:45:46;;;;;;;18.15;3.50;;;10.50;99.90;;;;;;4988292;28;20046;-62
2023/11/15 11:48:16;;;;;;;16.05;3.42;;;10.50;99.90;;;;;;4993733;28;20224;-61
2023/11/15 11:50:55;;;;;;;14.63;3.30;;;10.70;99.90;;;;;;4995737;28;20046;-63
2023/11/15 11:53:22;;;;;;;12.45;2.70;;;10.60;99.90;;;;;;4988036;28;20510;-61
2023/11/15 11:55:50;;;;;;;17.02;2.95;;;10.70;99.90;;;;;;4986714;28;20422;-61
2023/11/15 11:58:16;;;;;;;15.75;3.03;;;10.70;99.90;;;;;;4974472;28;20401;-61
2023/11/15 12:00:41;;;;;;;17.08;3.90;;;10.80;99.90;;;;;;4988432;28;20034;-62
2023/11/15 12:03:10;;;;;;;15.02;3.53;;;10.80;99.90;;;;;;4987816;28;20096;-62
2023/11/15 12:05:36;;;;;;;17.40;3.75;;;10.80;99.90;;;;;;4983241;28;20149;-62
2023/11/15 12:08:03;;;;;;;16.73;3.67;;;10.90;99.90;;;;;;4986126;28;20133;-61
2023/11/15 12:10:29;;;;;;;14.52;2.95;;;11.00;99.90;;;;;;4988298;28;20117;-61
2023/11/15 12:12:59;;;;;;;15.63;2.80;;;11.00;99.90;;;;;;4992869;28;20333;-61
2023/11/15 12:15:25;;;;;;;10.40;2.75;;;11.00;99.90;;;;;;4980157;28;20544;-63
2023/11/15 12:17:54;;;;;;;18.27;2.80;;;11.00;99.90;;;;;;4970220;28;20141;-64
2023/11/15 12:20:28;;;;;;;18.20;3.42;;;11.00;99.90;;;;;;4987995;28;20050;-63
2023/11/15 12:23:08;;;;;;;16.00;3.03;;;10.90;99.90;;;;;;4986503;28;20061;-62
2023/11/15 12:25:47;;;;;;;16.20;3.03;;;10.90;99.90;;;;;;4981104;28;20383;-61
2023/11/15 12:28:21;;;;;;;20.95;3.22;;;10.90;99.90;;;;;;4969207;28;20073;-61
2023/11/15 12:30:47;;;;;;;10.63;2.88;;;10.90;99.90;;;;;;4987876;28;20042;-61
2023/11/15 12:33:13;;;;;;;16.05;2.63;;;10.80;99.90;;;;;;4989585;28;20069;-61
2023/11/15 12:35:42;;;;;;;19.05;3.25;;;10.80;99.90;;;;;;4987425;28;20517;-61
2023/11/15 12:38:12;;;;;;;15.65;3.05;;;10.90;99.90;;;;;;4987081;28;20048;-61
2023/11/15 12:40:41;;;;;;;16.45;2.80;;;10.90;99.90;;;;;;4987648;28;20042;-61
2023/11/15 12:43:19;;;;;;;14.63;3.05;;;11.20;99.90;;;;;;4987120;28;20421;-61
2023/11/15 12:45:45;;;;;;;11.55;2.78;;;11.10;99.90;;;;;;4982348;28;20117;-61
2023/11/15 12:48:11;;;;;;;19.77;3.67;;;11.20;99.90;;;;;;4987454;28;20540;-61
2023/11/15 12:50:42;;;;;;;15.27;2.67;;;11.40;99.90;;;;;;4987060;28;20035;-62
2023/11/15 12:53:10;;;;;;;14.05;3.13;;;11.60;99.90;;;;;;4986819;28;20042;-65
2023/11/15 12:55:55;;;;;;;12.10;2.45;;;11.70;99.90;;;;;;4987075;28;20857;-61